sensor_id;sensor_type;location;lat;lon;timestamp;P1;durP1;ratioP1;P2;durP2;ratioP2
76837;SDS011;65797;47.352;8.164;2023-04-15T00:01:18;2.10;;;1.70;;
76837;SDS011;65797;47.352;8.164;2023-04-15T00:03:44;2.50;;;1.63;;
76837;SDS011;65797;47.352;8.164;2023-04-15T00:06:11;3.00;;;1.63;;
76837;SDS011;65797;47.352;8.164;2023-04-15T00:08:37;2.80;;;1.47;;
76837;SDS011;65797;47.352;8.164;2023-04-15T00:11:03;2.57;;;1.60;;
76837;SDS011;65797;47.352;8.164;2023-04-15T00:13:30;3.73;;;1.57;;
76837;SDS011;65797;47.352;8.164;2023-04-15T00:15:58;1.73;;;1.37;;
76837;SDS011;65797;47.352;8.164;2023-04-15T00:18:23;6.00;;;1.57;;
76837;SDS011;65797;47.352;8.164;2023-04-15T00:20:49;2.20;;;1.57;;
76837;SDS011;65797;47.352;8.164;2023-04-15T00:23:15;5.20;;;2.50;;
76837;SDS011;65797;47.352;8.164;2023-04-15T00:25:41;5.83;;;1.50;;
76837;SDS011;65797;47.352;8.164;2023-04-15T00:28:06;7.60;;;2.23;;
76837;SDS011;65797;47.352;8.164;2023-04-15T00:30:32;2.60;;;1.57;;
76837;SDS011;65797;47.352;8.164;2023-04-15T00:32:59;5.70;;;1.80;;
76837;SDS011;65797;47.352;8.164;2023-04-15T00:35:26;1.50;;;1.20;;
76837;SDS011;65797;47.352;8.164;2023-04-15T00:37:52;3.87;;;1.77;;
76837;SDS011;65797;47.352;8.164;2023-04-15T00:40:18;2.60;;;1.63;;
76837;SDS011;65797;47.352;8.164;2023-04-15T00:42:45;6.07;;;2.00;;
76837;SDS011;65797;47.352;8.164;2023-04-15T00:45:11;2.73;;;1.70;;
76837;SDS011;65797;47.352;8.164;2023-04-15T00:47:38;3.77;;;1.30;;
76837;SDS011;65797;47.352;8.164;2023-04-15T00:50:06;2.90;;;1.70;;
76837;SDS011;65797;47.352;8.164;2023-04-15T00:52:32;2.77;;;1.70;;
76837;SDS011;65797;47.352;8.164;2023-04-15T00:54:58;2.53;;;1.70;;
76837;SDS011;65797;47.352;8.164;2023-04-15T00:57:25;2.90;;;1.50;;
76837;SDS011;65797;47.352;8.164;2023-04-15T00:59:52;18.70;;;2.10;;
76837;SDS011;65797;47.352;8.164;2023-04-15T01:02:19;1.80;;;1.70;;
76837;SDS011;65797;47.352;8.164;2023-04-15T01:04:45;1.40;;;1.33;;
76837;SDS011;65797;47.352;8.164;2023-04-15T01:07:11;3.27;;;1.60;;
76837;SDS011;65797;47.352;8.164;2023-04-15T01:09:37;1.30;;;1.20;;
76837;SDS011;65797;47.352;8.164;2023-04-15T01:12:03;3.20;;;1.70;;
76837;SDS011;65797;47.352;8.164;2023-04-15T01:14:29;1.40;;;1.23;;
76837;SDS011;65797;47.352;8.164;2023-04-15T01:16:56;1.90;;;1.20;;
76837;SDS011;65797;47.352;8.164;2023-04-15T01:19:21;4.03;;;1.50;;
76837;SDS011;65797;47.352;8.164;2023-04-15T01:21:47;1.53;;;1.43;;
76837;SDS011;65797;47.352;8.164;2023-04-15T01:24:13;3.23;;;1.50;;
76837;SDS011;65797;47.352;8.164;2023-04-15T01:26:41;2.30;;;1.40;;
76837;SDS011;65797;47.352;8.164;2023-04-15T01:29:07;1.80;;;1.57;;
76837;SDS011;65797;47.352;8.164;2023-04-15T01:31:33;3.27;;;1.40;;
76837;SDS011;65797;47.352;8.164;2023-04-15T01:33:59;1.50;;;1.40;;
76837;SDS011;65797;47.352;8.164;2023-04-15T01:36:25;6.63;;;1.80;;
76837;SDS011;65797;47.352;8.164;2023-04-15T01:38:51;4.83;;;1.70;;
76837;SDS011;65797;47.352;8.164;2023-04-15T01:41:20;1.80;;;1.70;;
76837;SDS011;65797;47.352;8.164;2023-04-15T01:43:49;2.60;;;1.47;;
76837;SDS011;65797;47.352;8.164;2023-04-15T01:46:16;4.30;;;1.60;;
76837;SDS011;65797;47.352;8.164;2023-04-15T01:48:42;2.47;;;1.50;;
76837;SDS011;65797;47.352;8.164;2023-04-15T01:51:07;3.13;;;2.17;;
76837;SDS011;65797;47.352;8.164;2023-04-15T01:53:33;4.10;;;1.50;;
76837;SDS011;65797;47.352;8.164;2023-04-15T01:55:59;1.40;;;1.30;;
76837;SDS011;65797;47.352;8.164;2023-04-15T01:58:25;5.50;;;1.80;;
76837;SDS011;65797;47.352;8.164;2023-04-15T02:00:51;2.80;;;1.50;;
76837;SDS011;65797;47.352;8.164;2023-04-15T02:03:17;1.57;;;1.40;;
76837;SDS011;65797;47.352;8.164;2023-04-15T02:05:43;1.33;;;1.20;;
76837;SDS011;65797;47.352;8.164;2023-04-15T02:08:09;7.33;;;1.70;;
76837;SDS011;65797;47.352;8.164;2023-04-15T02:10:35;3.80;;;1.70;;
76837;SDS011;65797;47.352;8.164;2023-04-15T02:13:00;1.30;;;1.13;;
76837;SDS011;65797;47.352;8.164;2023-04-15T02:15:26;4.53;;;1.30;;
76837;SDS011;65797;47.352;8.164;2023-04-15T02:17:52;3.20;;;1.37;;
76837;SDS011;65797;47.352;8.164;2023-04-15T02:20:19;3.73;;;1.40;;
76837;SDS011;65797;47.352;8.164;2023-04-15T02:22:45;3.17;;;1.50;;
76837;SDS011;65797;47.352;8.164;2023-04-15T02:25:12;1.70;;;1.33;;
76837;SDS011;65797;47.352;8.164;2023-04-15T02:27:38;1.50;;;1.40;;
76837;SDS011;65797;47.352;8.164;2023-04-15T02:30:04;2.60;;;1.33;;
76837;SDS011;65797;47.352;8.164;2023-04-15T02:32:31;1.70;;;1.27;;
76837;SDS011;65797;47.352;8.164;2023-04-15T02:35:06;1.20;;;1.10;;
76837;SDS011;65797;47.352;8.164;2023-04-15T02:37:33;1.90;;;1.23;;
76837;SDS011;65797;47.352;8.164;2023-04-15T02:40:04;2.17;;;1.40;;
76837;SDS011;65797;47.352;8.164;2023-04-15T02:42:37;2.50;;;1.30;;
76837;SDS011;65797;47.352;8.164;2023-04-15T02:45:04;4.57;;;1.40;;
76837;SDS011;65797;47.352;8.164;2023-04-15T02:47:31;2.13;;;1.60;;
76837;SDS011;65797;47.352;8.164;2023-04-15T02:49:56;1.27;;;1.10;;
76837;SDS011;65797;47.352;8.164;2023-04-15T02:52:24;1.63;;;1.53;;
76837;SDS011;65797;47.352;8.164;2023-04-15T02:54:50;5.70;;;1.30;;
76837;SDS011;65797;47.352;8.164;2023-04-15T02:57:16;2.77;;;1.50;;
76837;SDS011;65797;47.352;8.164;2023-04-15T02:59:41;2.00;;;1.20;;
76837;SDS011;65797;47.352;8.164;2023-04-15T03:02:07;2.00;;;1.40;;
76837;SDS011;65797;47.352;8.164;2023-04-15T03:04:33;2.87;;;2.03;;
76837;SDS011;65797;47.352;8.164;2023-04-15T03:07:00;3.37;;;1.63;;
76837;SDS011;65797;47.352;8.164;2023-04-15T03:09:26;5.50;;;1.27;;
76837;SDS011;65797;47.352;8.164;2023-04-15T03:11:52;3.53;;;1.97;;
76837;SDS011;65797;47.352;8.164;2023-04-15T03:14:18;3.87;;;1.90;;
76837;SDS011;65797;47.352;8.164;2023-04-15T03:16:44;1.63;;;1.53;;
76837;SDS011;65797;47.352;8.164;2023-04-15T03:19:10;1.20;;;1.10;;
76837;SDS011;65797;47.352;8.164;2023-04-15T03:21:36;2.60;;;1.87;;
76837;SDS011;65797;47.352;8.164;2023-04-15T03:24:01;3.07;;;1.27;;
76837;SDS011;65797;47.352;8.164;2023-04-15T03:26:28;2.53;;;1.60;;
76837;SDS011;65797;47.352;8.164;2023-04-15T03:28:55;1.50;;;1.40;;
76837;SDS011;65797;47.352;8.164;2023-04-15T03:31:21;1.60;;;1.40;;
76837;SDS011;65797;47.352;8.164;2023-04-15T03:33:47;4.30;;;1.47;;
76837;SDS011;65797;47.352;8.164;2023-04-15T03:36:13;6.37;;;1.73;;
76837;SDS011;65797;47.352;8.164;2023-04-15T03:38:39;4.00;;;1.90;;
76837;SDS011;65797;47.352;8.164;2023-04-15T03:41:05;1.50;;;1.40;;
76837;SDS011;65797;47.352;8.164;2023-04-15T03:43:31;1.80;;;1.70;;
76837;SDS011;65797;47.352;8.164;2023-04-15T03:45:57;1.60;;;1.43;;
76837;SDS011;65797;47.352;8.164;2023-04-15T03:48:22;3.50;;;1.77;;
76837;SDS011;65797;47.352;8.164;2023-04-15T03:50:48;2.30;;;1.73;;
76837;SDS011;65797;47.352;8.164;2023-04-15T03:53:14;2.80;;;1.80;;
76837;SDS011;65797;47.352;8.164;2023-04-15T03:55:40;4.97;;;2.43;;
76837;SDS011;65797;47.352;8.164;2023-04-15T03:58:05;3.37;;;1.80;;
76837;SDS011;65797;47.352;8.164;2023-04-15T04:00:31;4.07;;;1.70;;
76837;SDS011;65797;47.352;8.164;2023-04-15T04:02:57;2.30;;;1.70;;
76837;SDS011;65797;47.352;8.164;2023-04-15T04:05:23;1.50;;;1.40;;
76837;SDS011;65797;47.352;8.164;2023-04-15T04:07:48;5.33;;;2.00;;
76837;SDS011;65797;47.352;8.164;2023-04-15T04:10:14;2.97;;;1.73;;
76837;SDS011;65797;47.352;8.164;2023-04-15T04:12:40;2.83;;;1.90;;
76837;SDS011;65797;47.352;8.164;2023-04-15T04:15:06;3.30;;;1.60;;
76837;SDS011;65797;47.352;8.164;2023-04-15T04:17:32;3.40;;;2.60;;
76837;SDS011;65797;47.352;8.164;2023-04-15T04:19:58;6.60;;;2.97;;
76837;SDS011;65797;47.352;8.164;2023-04-15T04:22:24;5.63;;;2.50;;
76837;SDS011;65797;47.352;8.164;2023-04-15T04:24:50;5.77;;;3.00;;
76837;SDS011;65797;47.352;8.164;2023-04-15T04:27:19;4.03;;;2.20;;
76837;SDS011;65797;47.352;8.164;2023-04-15T04:29:44;2.90;;;2.10;;
76837;SDS011;65797;47.352;8.164;2023-04-15T04:32:11;2.40;;;1.57;;
76837;SDS011;65797;47.352;8.164;2023-04-15T04:34:37;2.77;;;1.63;;
76837;SDS011;65797;47.352;8.164;2023-04-15T04:37:03;4.83;;;2.27;;
76837;SDS011;65797;47.352;8.164;2023-04-15T04:39:28;2.87;;;2.20;;
76837;SDS011;65797;47.352;8.164;2023-04-15T04:41:54;4.57;;;2.03;;
76837;SDS011;65797;47.352;8.164;2023-04-15T04:44:20;3.40;;;1.80;;
76837;SDS011;65797;47.352;8.164;2023-04-15T04:46:46;3.60;;;2.33;;
76837;SDS011;65797;47.352;8.164;2023-04-15T04:49:12;2.40;;;1.80;;
76837;SDS011;65797;47.352;8.164;2023-04-15T04:51:37;3.40;;;1.90;;
76837;SDS011;65797;47.352;8.164;2023-04-15T05:12:11;2.17;;;1.60;;
76837;SDS011;65797;47.352;8.164;2023-04-15T05:14:39;2.70;;;1.67;;
76837;SDS011;65797;47.352;8.164;2023-04-15T05:17:06;9.03;;;1.60;;
76837;SDS011;65797;47.352;8.164;2023-04-15T05:19:32;2.03;;;1.83;;
76837;SDS011;65797;47.352;8.164;2023-04-15T05:21:58;3.50;;;1.83;;
76837;SDS011;65797;47.352;8.164;2023-04-15T05:24:24;6.10;;;1.97;;
76837;SDS011;65797;47.352;8.164;2023-04-15T05:26:51;2.03;;;1.53;;
76837;SDS011;65797;47.352;8.164;2023-04-15T05:29:16;2.03;;;1.67;;
76837;SDS011;65797;47.352;8.164;2023-04-15T05:31:42;2.53;;;1.70;;
76837;SDS011;65797;47.352;8.164;2023-04-15T05:34:08;2.27;;;2.07;;
76837;SDS011;65797;47.352;8.164;2023-04-15T05:36:35;2.07;;;1.83;;
76837;SDS011;65797;47.352;8.164;2023-04-15T05:39:01;4.30;;;2.33;;
76837;SDS011;65797;47.352;8.164;2023-04-15T05:41:28;3.43;;;2.27;;
76837;SDS011;65797;47.352;8.164;2023-04-15T05:43:55;5.60;;;2.30;;
76837;SDS011;65797;47.352;8.164;2023-04-15T05:46:21;7.10;;;2.40;;
76837;SDS011;65797;47.352;8.164;2023-04-15T05:48:47;2.47;;;2.27;;
76837;SDS011;65797;47.352;8.164;2023-04-15T05:51:12;3.80;;;1.90;;
76837;SDS011;65797;47.352;8.164;2023-04-15T05:53:38;4.17;;;2.23;;
76837;SDS011;65797;47.352;8.164;2023-04-15T05:56:05;4.10;;;1.97;;
76837;SDS011;65797;47.352;8.164;2023-04-15T05:58:31;2.37;;;2.17;;
76837;SDS011;65797;47.352;8.164;2023-04-15T06:00:57;3.87;;;1.90;;
76837;SDS011;65797;47.352;8.164;2023-04-15T06:03:23;7.90;;;1.90;;
76837;SDS011;65797;47.352;8.164;2023-04-15T06:05:49;8.70;;;2.00;;
76837;SDS011;65797;47.352;8.164;2023-04-15T06:08:15;3.90;;;1.83;;
76837;SDS011;65797;47.352;8.164;2023-04-15T06:10:41;6.53;;;2.10;;
76837;SDS011;65797;47.352;8.164;2023-04-15T06:41:36;5.50;;;2.57;;
76837;SDS011;65797;47.352;8.164;2023-04-15T06:44:01;5.60;;;2.63;;
76837;SDS011;65797;47.352;8.164;2023-04-15T06:46:27;10.53;;;2.30;;
76837;SDS011;65797;47.352;8.164;2023-04-15T06:48:53;6.60;;;4.00;;
76837;SDS011;65797;47.352;8.164;2023-04-15T06:51:18;25.80;;;9.73;;
76837;SDS011;65797;47.352;8.164;2023-04-15T06:53:44;7.83;;;4.20;;
76837;SDS011;65797;47.352;8.164;2023-04-15T06:56:10;12.60;;;6.17;;
76837;SDS011;65797;47.352;8.164;2023-04-15T06:58:35;12.27;;;5.20;;
76837;SDS011;65797;47.352;8.164;2023-04-15T07:01:01;10.50;;;5.07;;
76837;SDS011;65797;47.352;8.164;2023-04-15T07:03:28;6.20;;;3.17;;
76837;SDS011;65797;47.352;8.164;2023-04-15T07:05:53;10.30;;;4.40;;
76837;SDS011;65797;47.352;8.164;2023-04-15T07:08:19;8.77;;;4.30;;
76837;SDS011;65797;47.352;8.164;2023-04-15T07:10:45;5.83;;;3.33;;
76837;SDS011;65797;47.352;8.164;2023-04-15T07:13:11;7.90;;;2.87;;
76837;SDS011;65797;47.352;8.164;2023-04-15T07:15:37;4.47;;;2.67;;
76837;SDS011;65797;47.352;8.164;2023-04-15T07:18:03;5.20;;;2.97;;
76837;SDS011;65797;47.352;8.164;2023-04-15T07:20:29;4.90;;;2.53;;
76837;SDS011;65797;47.352;8.164;2023-04-15T07:22:55;5.53;;;2.70;;
76837;SDS011;65797;47.352;8.164;2023-04-15T07:25:21;2.80;;;2.60;;
76837;SDS011;65797;47.352;8.164;2023-04-15T07:27:47;6.93;;;2.67;;
76837;SDS011;65797;47.352;8.164;2023-04-15T07:30:12;2.83;;;2.10;;
76837;SDS011;65797;47.352;8.164;2023-04-15T07:32:38;3.10;;;2.80;;
76837;SDS011;65797;47.352;8.164;2023-04-15T07:35:05;5.97;;;3.30;;
76837;SDS011;65797;47.352;8.164;2023-04-15T07:37:31;4.07;;;2.80;;
76837;SDS011;65797;47.352;8.164;2023-04-15T07:39:57;9.83;;;2.63;;
76837;SDS011;65797;47.352;8.164;2023-04-15T07:42:23;5.83;;;2.10;;
76837;SDS011;65797;47.352;8.164;2023-04-15T07:44:49;4.40;;;2.50;;
76837;SDS011;65797;47.352;8.164;2023-04-15T07:47:16;6.97;;;3.00;;
76837;SDS011;65797;47.352;8.164;2023-04-15T07:49:41;3.60;;;2.53;;
76837;SDS011;65797;47.352;8.164;2023-04-15T07:52:08;3.43;;;2.63;;
76837;SDS011;65797;47.352;8.164;2023-04-15T07:54:34;2.90;;;2.60;;
76837;SDS011;65797;47.352;8.164;2023-04-15T07:56:59;8.00;;;2.73;;
76837;SDS011;65797;47.352;8.164;2023-04-15T07:59:25;3.77;;;2.37;;
76837;SDS011;65797;47.352;8.164;2023-04-15T08:01:54;3.73;;;2.70;;
76837;SDS011;65797;47.352;8.164;2023-04-15T08:04:19;6.47;;;2.70;;
76837;SDS011;65797;47.352;8.164;2023-04-15T08:06:45;3.47;;;2.70;;
76837;SDS011;65797;47.352;8.164;2023-04-15T08:09:12;2.93;;;2.03;;
76837;SDS011;65797;47.352;8.164;2023-04-15T08:11:38;6.90;;;2.40;;
76837;SDS011;65797;47.352;8.164;2023-04-15T08:16:39;5.20;;;2.60;;
76837;SDS011;65797;47.352;8.164;2023-04-15T08:19:04;3.77;;;2.30;;
76837;SDS011;65797;47.352;8.164;2023-04-15T08:21:30;4.20;;;3.00;;
76837;SDS011;65797;47.352;8.164;2023-04-15T08:23:56;3.57;;;2.63;;
76837;SDS011;65797;47.352;8.164;2023-04-15T08:26:24;3.90;;;2.53;;
76837;SDS011;65797;47.352;8.164;2023-04-15T08:28:50;6.03;;;3.10;;
76837;SDS011;65797;47.352;8.164;2023-04-15T08:31:16;2.77;;;2.57;;
76837;SDS011;65797;47.352;8.164;2023-04-15T08:33:43;8.50;;;2.73;;
76837;SDS011;65797;47.352;8.164;2023-04-15T08:36:09;3.40;;;2.30;;
76837;SDS011;65797;47.352;8.164;2023-04-15T08:38:36;3.50;;;2.33;;
76837;SDS011;65797;47.352;8.164;2023-04-15T08:41:06;5.57;;;2.60;;
76837;SDS011;65797;47.352;8.164;2023-04-15T08:43:51;4.00;;;2.80;;
76837;SDS011;65797;47.352;8.164;2023-04-15T08:46:19;3.53;;;2.40;;
76837;SDS011;65797;47.352;8.164;2023-04-15T08:48:46;4.13;;;2.40;;
76837;SDS011;65797;47.352;8.164;2023-04-15T08:53:48;3.47;;;1.60;;
76837;SDS011;65797;47.352;8.164;2023-04-15T08:56:15;4.30;;;2.17;;
76837;SDS011;65797;47.352;8.164;2023-04-15T08:58:42;4.00;;;1.87;;
76837;SDS011;65797;47.352;8.164;2023-04-15T09:01:10;1.53;;;1.10;;
76837;SDS011;65797;47.352;8.164;2023-04-15T09:57:59;1.47;;;1.37;;
76837;SDS011;65797;47.352;8.164;2023-04-15T10:00:25;9.93;;;1.73;;
76837;SDS011;65797;47.352;8.164;2023-04-15T10:02:50;3.23;;;1.57;;
76837;SDS011;65797;47.352;8.164;2023-04-15T10:05:16;4.17;;;1.97;;
76837;SDS011;65797;47.352;8.164;2023-04-15T10:07:42;2.30;;;1.70;;
76837;SDS011;65797;47.352;8.164;2023-04-15T10:10:08;8.03;;;1.23;;
76837;SDS011;65797;47.352;8.164;2023-04-15T13:17:54;0.47;;;0.47;;
76837;SDS011;65797;47.352;8.164;2023-04-15T13:22:57;0.60;;;0.60;;
76837;SDS011;65797;47.352;8.164;2023-04-15T13:25:23;0.60;;;0.60;;
76837;SDS011;65797;47.352;8.164;2023-04-15T13:35:36;0.50;;;0.50;;
76837;SDS011;65797;47.352;8.164;2023-04-15T13:38:01;0.87;;;0.60;;
76837;SDS011;65797;47.352;8.164;2023-04-15T13:40:27;0.50;;;0.50;;
76837;SDS011;65797;47.352;8.164;2023-04-15T13:55:49;2.00;;;1.07;;
76837;SDS011;65797;47.352;8.164;2023-04-15T13:58:15;1.33;;;1.10;;
76837;SDS011;65797;47.352;8.164;2023-04-15T14:26:34;0.60;;;0.60;;
76837;SDS011;65797;47.352;8.164;2023-04-15T14:29:00;0.87;;;0.60;;
76837;SDS011;65797;47.352;8.164;2023-04-15T14:31:26;0.60;;;0.60;;
76837;SDS011;65797;47.352;8.164;2023-04-15T14:33:51;0.60;;;0.60;;
76837;SDS011;65797;47.352;8.164;2023-04-15T14:36:17;0.80;;;0.60;;
76837;SDS011;65797;47.352;8.164;2023-04-15T14:38:43;1.80;;;0.53;;
76837;SDS011;65797;47.352;8.164;2023-04-15T14:41:08;1.10;;;0.53;;
76837;SDS011;65797;47.352;8.164;2023-04-15T14:43:34;0.67;;;0.67;;
76837;SDS011;65797;47.352;8.164;2023-04-15T14:46:00;0.50;;;0.50;;
76837;SDS011;65797;47.352;8.164;2023-04-15T14:48:27;0.60;;;0.60;;
76837;SDS011;65797;47.352;8.164;2023-04-15T14:50:53;0.70;;;0.70;;
76837;SDS011;65797;47.352;8.164;2023-04-15T14:53:18;0.80;;;0.60;;
76837;SDS011;65797;47.352;8.164;2023-04-15T14:55:44;0.80;;;0.80;;
76837;SDS011;65797;47.352;8.164;2023-04-15T14:58:10;0.63;;;0.63;;
76837;SDS011;65797;47.352;8.164;2023-04-15T15:00:39;0.70;;;0.70;;
76837;SDS011;65797;47.352;8.164;2023-04-15T15:03:08;1.70;;;0.80;;
76837;SDS011;65797;47.352;8.164;2023-04-15T15:05:38;2.30;;;0.70;;
76837;SDS011;65797;47.352;8.164;2023-04-15T15:08:05;1.70;;;0.83;;
76837;SDS011;65797;47.352;8.164;2023-04-15T15:10:32;0.60;;;0.60;;
76837;SDS011;65797;47.352;8.164;2023-04-15T15:12:58;0.87;;;0.80;;
76837;SDS011;65797;47.352;8.164;2023-04-15T15:15:24;0.90;;;0.90;;
76837;SDS011;65797;47.352;8.164;2023-04-15T15:17:49;1.70;;;1.00;;
76837;SDS011;65797;47.352;8.164;2023-04-15T15:20:15;1.00;;;0.83;;
76837;SDS011;65797;47.352;8.164;2023-04-15T15:22:43;0.80;;;0.80;;
76837;SDS011;65797;47.352;8.164;2023-04-15T15:25:08;0.70;;;0.70;;
76837;SDS011;65797;47.352;8.164;2023-04-15T15:27:34;0.90;;;0.90;;
76837;SDS011;65797;47.352;8.164;2023-04-15T15:30:01;1.27;;;0.90;;
76837;SDS011;65797;47.352;8.164;2023-04-15T15:32:27;0.90;;;0.90;;
76837;SDS011;65797;47.352;8.164;2023-04-15T15:34:53;2.50;;;0.90;;
76837;SDS011;65797;47.352;8.164;2023-04-15T15:37:19;1.00;;;1.00;;
76837;SDS011;65797;47.352;8.164;2023-04-15T15:39:45;11.73;;;5.83;;
76837;SDS011;65797;47.352;8.164;2023-04-15T15:42:12;3.03;;;2.40;;
76837;SDS011;65797;47.352;8.164;2023-04-15T15:44:38;1.00;;;1.00;;
76837;SDS011;65797;47.352;8.164;2023-04-15T15:47:04;0.90;;;0.90;;
76837;SDS011;65797;47.352;8.164;2023-04-15T15:49:29;0.93;;;0.93;;
76837;SDS011;65797;47.352;8.164;2023-04-15T15:51:55;0.90;;;0.90;;
76837;SDS011;65797;47.352;8.164;2023-04-15T15:54:21;0.80;;;0.80;;
76837;SDS011;65797;47.352;8.164;2023-04-15T15:56:48;0.83;;;0.83;;
76837;SDS011;65797;47.352;8.164;2023-04-15T15:59:14;1.17;;;1.07;;
76837;SDS011;65797;47.352;8.164;2023-04-15T16:01:40;1.70;;;1.60;;
76837;SDS011;65797;47.352;8.164;2023-04-15T16:04:05;0.90;;;0.90;;
76837;SDS011;65797;47.352;8.164;2023-04-15T16:06:31;3.07;;;1.10;;
76837;SDS011;65797;47.352;8.164;2023-04-15T16:08:57;1.27;;;1.13;;
76837;SDS011;65797;47.352;8.164;2023-04-15T16:11:22;1.17;;;0.90;;
76837;SDS011;65797;47.352;8.164;2023-04-15T16:13:48;1.43;;;0.80;;
76837;SDS011;65797;47.352;8.164;2023-04-15T16:16:14;1.03;;;1.03;;
76837;SDS011;65797;47.352;8.164;2023-04-15T16:18:40;1.40;;;1.40;;
76837;SDS011;65797;47.352;8.164;2023-04-15T16:21:05;2.10;;;1.50;;
76837;SDS011;65797;47.352;8.164;2023-04-15T16:23:31;2.30;;;1.30;;
76837;SDS011;65797;47.352;8.164;2023-04-15T16:25:57;0.90;;;0.90;;
76837;SDS011;65797;47.352;8.164;2023-04-15T16:28:22;1.83;;;0.93;;
76837;SDS011;65797;47.352;8.164;2023-04-15T16:30:48;0.90;;;0.90;;
76837;SDS011;65797;47.352;8.164;2023-04-15T16:33:14;0.70;;;0.70;;
76837;SDS011;65797;47.352;8.164;2023-04-15T16:35:40;1.20;;;1.10;;
76837;SDS011;65797;47.352;8.164;2023-04-15T16:38:05;0.70;;;0.70;;
76837;SDS011;65797;47.352;8.164;2023-04-15T16:40:31;0.80;;;0.80;;
76837;SDS011;65797;47.352;8.164;2023-04-15T16:42:57;1.47;;;1.13;;
76837;SDS011;65797;47.352;8.164;2023-04-15T16:45:23;1.10;;;1.10;;
76837;SDS011;65797;47.352;8.164;2023-04-15T16:47:48;2.20;;;1.53;;
76837;SDS011;65797;47.352;8.164;2023-04-15T16:50:14;1.67;;;1.57;;
76837;SDS011;65797;47.352;8.164;2023-04-15T16:52:40;1.10;;;1.10;;
76837;SDS011;65797;47.352;8.164;2023-04-15T16:55:06;1.50;;;1.40;;
76837;SDS011;65797;47.352;8.164;2023-04-15T16:57:31;1.33;;;1.23;;
76837;SDS011;65797;47.352;8.164;2023-04-15T16:59:57;2.93;;;2.47;;
76837;SDS011;65797;47.352;8.164;2023-04-15T17:02:23;1.53;;;1.53;;
76837;SDS011;65797;47.352;8.164;2023-04-15T17:04:49;1.23;;;1.23;;
76837;SDS011;65797;47.352;8.164;2023-04-15T17:07:14;1.30;;;1.00;;
76837;SDS011;65797;47.352;8.164;2023-04-15T17:09:40;1.80;;;1.00;;
76837;SDS011;65797;47.352;8.164;2023-04-15T17:12:06;3.03;;;1.17;;
76837;SDS011;65797;47.352;8.164;2023-04-15T17:14:32;0.87;;;0.87;;
76837;SDS011;65797;47.352;8.164;2023-04-15T17:16:58;2.50;;;1.30;;
76837;SDS011;65797;47.352;8.164;2023-04-15T17:19:25;1.37;;;1.27;;
76837;SDS011;65797;47.352;8.164;2023-04-15T17:21:51;1.70;;;1.30;;
76837;SDS011;65797;47.352;8.164;2023-04-15T17:24:17;5.70;;;2.70;;
76837;SDS011;65797;47.352;8.164;2023-04-15T17:26:43;1.30;;;1.20;;
76837;SDS011;65797;47.352;8.164;2023-04-15T17:29:09;1.53;;;1.27;;
76837;SDS011;65797;47.352;8.164;2023-04-15T17:31:35;1.33;;;1.23;;
76837;SDS011;65797;47.352;8.164;2023-04-15T17:34:00;1.10;;;1.10;;
76837;SDS011;65797;47.352;8.164;2023-04-15T17:36:26;1.20;;;1.10;;
76837;SDS011;65797;47.352;8.164;2023-04-15T17:38:54;1.80;;;0.83;;
76837;SDS011;65797;47.352;8.164;2023-04-15T17:41:20;0.90;;;0.83;;
76837;SDS011;65797;47.352;8.164;2023-04-15T17:43:46;2.00;;;1.07;;
76837;SDS011;65797;47.352;8.164;2023-04-15T17:46:12;0.80;;;0.80;;
76837;SDS011;65797;47.352;8.164;2023-04-15T17:48:38;1.13;;;0.80;;
76837;SDS011;65797;47.352;8.164;2023-04-15T17:51:05;1.50;;;0.97;;
76837;SDS011;65797;47.352;8.164;2023-04-15T17:53:31;1.63;;;0.97;;
76837;SDS011;65797;47.352;8.164;2023-04-15T17:55:56;1.67;;;1.30;;
76837;SDS011;65797;47.352;8.164;2023-04-15T17:58:22;2.30;;;1.47;;
76837;SDS011;65797;47.352;8.164;2023-04-15T18:00:49;1.60;;;0.97;;
76837;SDS011;65797;47.352;8.164;2023-04-15T18:03:15;3.43;;;2.17;;
76837;SDS011;65797;47.352;8.164;2023-04-15T18:05:41;2.87;;;1.50;;
76837;SDS011;65797;47.352;8.164;2023-04-15T18:08:07;6.00;;;4.50;;
76837;SDS011;65797;47.352;8.164;2023-04-15T18:10:33;1.90;;;1.53;;
76837;SDS011;65797;47.352;8.164;2023-04-15T18:12:59;1.50;;;1.40;;
76837;SDS011;65797;47.352;8.164;2023-04-15T18:15:27;2.20;;;1.50;;
76837;SDS011;65797;47.352;8.164;2023-04-15T18:17:56;2.90;;;1.67;;
76837;SDS011;65797;47.352;8.164;2023-04-15T18:20:23;1.47;;;1.13;;
76837;SDS011;65797;47.352;8.164;2023-04-15T18:22:48;1.50;;;1.40;;
76837;SDS011;65797;47.352;8.164;2023-04-15T18:25:15;2.47;;;1.80;;
76837;SDS011;65797;47.352;8.164;2023-04-15T18:27:41;3.60;;;2.07;;
76837;SDS011;65797;47.352;8.164;2023-04-15T18:30:07;3.20;;;2.20;;
76837;SDS011;65797;47.352;8.164;2023-04-15T18:32:34;3.63;;;1.60;;
76837;SDS011;65797;47.352;8.164;2023-04-15T18:35:00;4.23;;;2.37;;
76837;SDS011;65797;47.352;8.164;2023-04-15T18:37:26;5.23;;;2.53;;
76837;SDS011;65797;47.352;8.164;2023-04-15T18:39:55;3.33;;;1.90;;
76837;SDS011;65797;47.352;8.164;2023-04-15T18:42:22;5.50;;;2.90;;
76837;SDS011;65797;47.352;8.164;2023-04-15T18:44:49;4.17;;;2.40;;
76837;SDS011;65797;47.352;8.164;2023-04-15T18:47:17;8.10;;;4.53;;
76837;SDS011;65797;47.352;8.164;2023-04-15T18:49:43;6.83;;;3.83;;
76837;SDS011;65797;47.352;8.164;2023-04-15T18:52:09;10.87;;;5.07;;
76837;SDS011;65797;47.352;8.164;2023-04-15T18:54:35;8.23;;;4.00;;
76837;SDS011;65797;47.352;8.164;2023-04-15T18:57:01;8.47;;;4.83;;
76837;SDS011;65797;47.352;8.164;2023-04-15T18:59:30;12.50;;;4.23;;
76837;SDS011;65797;47.352;8.164;2023-04-15T19:01:57;5.77;;;3.80;;
76837;SDS011;65797;47.352;8.164;2023-04-15T19:04:23;6.93;;;3.57;;
76837;SDS011;65797;47.352;8.164;2023-04-15T19:06:49;3.83;;;2.50;;
76837;SDS011;65797;47.352;8.164;2023-04-15T19:09:15;4.13;;;2.90;;
76837;SDS011;65797;47.352;8.164;2023-04-15T19:11:41;4.30;;;2.73;;
76837;SDS011;65797;47.352;8.164;2023-04-15T19:14:08;2.53;;;2.30;;
76837;SDS011;65797;47.352;8.164;2023-04-15T19:16:34;2.40;;;2.20;;
76837;SDS011;65797;47.352;8.164;2023-04-15T19:18:59;3.23;;;2.57;;
76837;SDS011;65797;47.352;8.164;2023-04-15T19:21:25;2.90;;;2.10;;
76837;SDS011;65797;47.352;8.164;2023-04-15T19:23:51;3.80;;;1.80;;
76837;SDS011;65797;47.352;8.164;2023-04-15T19:26:17;3.93;;;2.40;;
76837;SDS011;65797;47.352;8.164;2023-04-15T19:28:43;2.30;;;1.87;;
76837;SDS011;65797;47.352;8.164;2023-04-15T19:31:09;5.97;;;2.47;;
76837;SDS011;65797;47.352;8.164;2023-04-15T19:33:35;3.40;;;2.23;;
76837;SDS011;65797;47.352;8.164;2023-04-15T19:36:01;1.77;;;1.67;;
76837;SDS011;65797;47.352;8.164;2023-04-15T19:38:29;4.00;;;2.07;;
76837;SDS011;65797;47.352;8.164;2023-04-15T19:40:56;3.23;;;1.90;;
76837;SDS011;65797;47.352;8.164;2023-04-15T19:43:22;1.40;;;1.30;;
76837;SDS011;65797;47.352;8.164;2023-04-15T19:45:48;3.73;;;1.57;;
76837;SDS011;65797;47.352;8.164;2023-04-15T19:48:17;1.87;;;1.60;;
76837;SDS011;65797;47.352;8.164;2023-04-15T19:50:43;1.37;;;1.00;;
76837;SDS011;65797;47.352;8.164;2023-04-15T19:53:08;3.40;;;1.00;;
76837;SDS011;65797;47.352;8.164;2023-04-15T19:55:34;0.60;;;0.60;;
76837;SDS011;65797;47.352;8.164;2023-04-15T19:58:00;1.03;;;0.70;;
76837;SDS011;65797;47.352;8.164;2023-04-15T20:00:26;0.63;;;0.63;;
76837;SDS011;65797;47.352;8.164;2023-04-15T20:02:52;0.63;;;0.63;;
76837;SDS011;65797;47.352;8.164;2023-04-15T20:05:19;0.97;;;0.70;;
76837;SDS011;65797;47.352;8.164;2023-04-15T20:07:45;2.20;;;0.77;;
76837;SDS011;65797;47.352;8.164;2023-04-15T20:10:12;0.70;;;0.70;;
76837;SDS011;65797;47.352;8.164;2023-04-15T20:12:38;0.80;;;0.80;;
76837;SDS011;65797;47.352;8.164;2023-04-15T20:15:06;1.00;;;0.70;;
76837;SDS011;65797;47.352;8.164;2023-04-15T20:17:32;0.70;;;0.70;;
76837;SDS011;65797;47.352;8.164;2023-04-15T20:19:58;0.80;;;0.77;;
76837;SDS011;65797;47.352;8.164;2023-04-15T20:22:24;1.07;;;0.70;;